createdAt,value
2023-01-15T00:04:12.230Z,1.00
2023-01-15T00:09:15.565Z,0.90
2023-01-15T00:14:17.129Z,0.70
2023-01-15T00:19:18.759Z,0.70
2023-01-15T00:24:55.762Z,0.60
2023-01-15T00:29:57.375Z,0.60
2023-01-15T00:34:59.529Z,0.60
2023-01-15T00:40:01.128Z,0.50
2023-01-15T00:45:09.935Z,0.90
2023-01-15T00:50:14.180Z,1.00
2023-01-15T00:55:15.798Z,0.98
2023-01-15T01:00:17.686Z,1.17
2023-01-15T01:05:19.302Z,0.90
2023-01-15T01:10:20.961Z,1.13
2023-01-15T01:15:23.313Z,1.05
2023-01-15T01:20:24.965Z,0.80
2023-01-15T01:25:26.610Z,1.15
2023-01-15T01:30:28.230Z,0.93
2023-01-15T01:35:29.855Z,0.93
2023-01-15T01:40:31.430Z,0.82
2023-01-15T01:45:33.560Z,1.10
2023-01-15T01:50:35.686Z,0.95
2023-01-15T01:55:37.976Z,1.10
2023-01-15T02:00:42.370Z,1.38
2023-01-15T02:05:47.783Z,1.52
2023-01-15T02:10:53.106Z,1.52
2023-01-15T02:16:22.229Z,1.70
2023-01-15T02:21:42.176Z,2.10
2023-01-15T02:27:06.041Z,1.73
2023-01-15T02:32:14.133Z,1.65
2023-01-15T02:37:22.841Z,1.80
2023-01-15T02:42:26.995Z,1.60
2023-01-15T02:47:32.869Z,1.60
2023-01-15T02:52:37.713Z,1.27
2023-01-15T02:57:41.707Z,1.52
2023-01-15T03:02:49.562Z,1.05
2023-01-15T03:07:53.645Z,1.20
2023-01-15T03:13:04.377Z,1.20
2023-01-15T03:18:46.029Z,1.10
2023-01-15T03:23:51.659Z,1.55
2023-01-15T03:28:53.655Z,1.17
2023-01-15T03:33:55.257Z,1.00
2023-01-15T03:38:58.595Z,0.80
2023-01-15T03:44:27.903Z,0.90
2023-01-15T03:49:58.012Z,0.60
2023-01-15T03:55:26.201Z,0.50
2023-01-15T04:00:38.732Z,0.50
2023-01-15T04:05:41.850Z,0.50
2023-01-15T04:10:56.896Z,0.50
2023-01-15T04:16:02.112Z,0.50
2023-01-15T04:21:05.515Z,0.30
2023-01-15T04:26:09.216Z,0.50
2023-01-15T04:31:10.839Z,0.45
2023-01-15T04:36:14.434Z,0.40
2023-01-15T04:41:34.410Z,0.50
2023-01-15T04:46:43.002Z,0.40
2023-01-15T04:51:45.065Z,0.40
2023-01-15T04:56:48.210Z,0.50
2023-01-15T05:02:02.506Z,0.98
2023-01-15T05:07:05.484Z,1.05
2023-01-15T05:12:07.114Z,1.10
2023-01-15T05:17:08.644Z,0.80
2023-01-15T05:22:10.375Z,0.93
2023-01-15T05:27:11.961Z,1.08
2023-01-15T05:32:13.743Z,1.00
2023-01-15T05:37:15.425Z,0.95
2023-01-15T05:42:17.000Z,1.17
2023-01-15T05:47:18.680Z,0.93
2023-01-15T05:52:21.450Z,0.90
2023-01-15T05:57:23.004Z,0.88
2023-01-15T06:02:24.733Z,0.80
2023-01-15T06:07:26.385Z,1.10
2023-01-15T06:12:28.030Z,0.93
2023-01-15T06:17:29.613Z,0.70
2023-01-15T06:22:31.188Z,0.70
2023-01-15T06:27:32.861Z,0.88
2023-01-15T06:32:34.476Z,0.60
2023-01-15T06:37:36.044Z,0.70
2023-01-15T06:42:56.244Z,0.50
2023-01-15T06:47:58.224Z,0.52
2023-01-15T06:52:59.782Z,0.40
2023-01-15T06:58:03.880Z,0.55
2023-01-15T07:03:05.800Z,0.70
2023-01-15T07:08:07.391Z,0.30
2023-01-15T07:13:12.121Z,0.50
2023-01-15T07:18:13.692Z,0.55
2023-01-15T07:23:16.776Z,0.52
2023-01-15T07:28:18.465Z,0.52
2023-01-15T07:33:20.067Z,0.70
2023-01-15T07:38:21.640Z,0.50
2023-01-15T07:43:42.283Z,0.45
2023-01-15T07:49:02.551Z,0.55
2023-01-15T07:54:04.157Z,0.77
2023-01-15T07:59:05.720Z,0.80
2023-01-15T08:04:07.338Z,0.85
2023-01-15T08:09:08.977Z,0.93
2023-01-15T08:14:29.147Z,0.82
2023-01-15T08:19:30.852Z,0.80
2023-01-15T08:24:32.482Z,0.88
2023-01-15T08:29:34.074Z,0.80
2023-01-15T08:34:35.658Z,0.95
2023-01-15T08:39:37.299Z,0.85
2023-01-15T08:44:38.885Z,0.75
2023-01-15T08:49:40.416Z,1.00
2023-01-15T08:54:42.351Z,0.80
2023-01-15T08:59:43.983Z,0.90
2023-01-15T09:04:45.638Z,1.00
2023-01-15T09:09:47.249Z,0.90
2023-01-15T09:14:58.772Z,0.90
2023-01-15T09:20:04.711Z,0.93
2023-01-15T09:25:06.964Z,0.90
2023-01-15T09:30:11.258Z,0.80
2023-01-15T09:35:12.823Z,1.10
2023-01-15T09:40:53.026Z,0.80
2023-01-15T09:46:02.073Z,1.10
2023-01-15T09:51:22.749Z,0.90
2023-01-15T09:56:29.740Z,0.90
2023-01-15T10:01:33.178Z,1.40
2023-01-15T10:06:41.013Z,1.25
2023-01-15T10:12:04.869Z,1.60
2023-01-15T10:17:34.952Z,1.30
2023-01-15T10:22:46.880Z,1.30
2023-01-15T10:27:51.611Z,1.20
2023-01-15T10:33:02.416Z,1.15
2023-01-15T10:38:22.666Z,0.82
2023-01-15T10:43:44.795Z,0.90
2023-01-15T10:48:50.001Z,0.98
2023-01-15T10:53:53.858Z,1.30
2023-01-15T10:59:05.116Z,0.80
2023-01-15T11:04:15.884Z,0.60
2023-01-15T11:09:23.336Z,0.70
2023-01-15T11:15:01.930Z,0.65
2023-01-15T11:20:12.346Z,0.60
2023-01-15T11:25:14.227Z,0.75
2023-01-15T11:30:28.372Z,0.80
2023-01-15T11:35:30.937Z,0.73
2023-01-15T11:40:33.050Z,1.10
2023-01-15T11:45:53.318Z,0.90
2023-01-15T11:51:00.331Z,0.80
2023-01-15T11:56:06.561Z,0.80
2023-01-15T12:01:08.247Z,0.70
2023-01-15T12:06:11.956Z,0.75
2023-01-15T12:11:39.255Z,0.80
2023-01-15T12:16:49.376Z,0.70
2023-01-15T12:22:09.569Z,0.75
2023-01-15T12:27:52.267Z,0.80
2023-01-15T12:33:17.363Z,0.85
2023-01-15T12:38:32.453Z,0.95
2023-01-15T12:43:52.530Z,0.70
2023-01-15T12:49:03.380Z,0.70
2023-01-15T12:54:12.538Z,0.90
2023-01-15T12:59:25.422Z,0.80
2023-01-15T13:04:58.172Z,0.50
2023-01-15T13:10:19.984Z,0.75
2023-01-15T13:15:26.300Z,0.77
2023-01-15T13:20:53.972Z,0.70
2023-01-15T13:26:01.474Z,0.70
2023-01-15T13:31:13.606Z,0.80
2023-01-15T13:36:20.341Z,0.70
2023-01-15T13:41:44.249Z,0.90
2023-01-15T13:46:47.466Z,0.77
2023-01-15T13:51:49.552Z,0.50
2023-01-15T13:56:51.146Z,0.60
2023-01-15T14:01:52.893Z,0.70
2023-01-15T14:06:54.641Z,0.73
2023-01-15T14:11:59.251Z,0.80
2023-01-15T14:17:09.605Z,0.88
2023-01-15T14:22:17.111Z,0.65
2023-01-15T14:27:31.975Z,0.70
2023-01-15T14:32:53.757Z,0.80
2023-01-15T14:38:00.636Z,0.52
2023-01-15T14:43:10.257Z,0.40
2023-01-15T14:48:30.349Z,0.50
2023-01-15T14:53:50.168Z,0.77
2023-01-15T14:59:08.697Z,0.80
2023-01-15T15:04:45.038Z,0.63
2023-01-15T15:09:52.328Z,0.80
2023-01-15T15:15:08.105Z,0.55
2023-01-15T15:20:21.624Z,0.90
2023-01-15T15:25:26.027Z,0.73
2023-01-15T15:30:28.222Z,0.80
2023-01-15T15:35:31.158Z,0.60
2023-01-15T15:40:34.802Z,0.88
2023-01-15T15:45:55.204Z,0.52
2023-01-15T15:50:56.860Z,0.70
2023-01-15T15:55:59.765Z,0.80
2023-01-15T16:01:01.935Z,0.80
2023-01-15T16:06:06.737Z,0.90
2023-01-15T16:11:11.449Z,0.77
2023-01-15T16:16:13.701Z,0.70
2023-01-15T16:21:30.548Z,0.95
2023-01-15T16:26:38.455Z,0.85
2023-01-15T16:31:40.039Z,0.68
2023-01-15T16:36:45.326Z,0.65
2023-01-15T16:41:47.013Z,0.82
2023-01-15T16:46:57.074Z,0.80
2023-01-15T16:52:00.869Z,0.85
2023-01-15T16:57:28.544Z,1.00
2023-01-15T17:02:35.488Z,1.10
2023-01-15T17:07:38.817Z,1.10
2023-01-15T17:12:42.579Z,1.15
2023-01-15T17:17:49.045Z,1.10
2023-01-15T17:22:51.068Z,1.00
2023-01-15T17:27:56.033Z,1.17
2023-01-15T17:33:01.773Z,1.20
2023-01-15T17:38:04.815Z,1.02
2023-01-15T17:43:07.610Z,0.80
2023-01-15T17:48:09.456Z,1.17
2023-01-15T17:53:11.140Z,0.80
2023-01-15T17:58:32.370Z,1.08
2023-01-15T18:03:53.982Z,0.90
2023-01-15T18:08:57.864Z,1.00
2023-01-15T18:13:59.533Z,1.00
2023-01-15T18:19:01.130Z,1.20
2023-01-15T18:24:04.279Z,1.02
2023-01-15T18:29:07.165Z,0.90
2023-01-15T18:34:09.054Z,1.23
2023-01-15T18:39:12.989Z,0.90
2023-01-15T18:44:38.275Z,0.90
2023-01-15T18:49:44.756Z,0.90
2023-01-15T18:54:46.315Z,0.90
2023-01-15T18:59:48.211Z,1.00
2023-01-15T19:04:49.886Z,0.70
2023-01-15T19:09:51.621Z,1.00
2023-01-15T19:15:11.759Z,1.02
2023-01-15T19:20:15.593Z,1.10
2023-01-15T19:25:17.505Z,1.13
2023-01-15T19:30:19.875Z,0.90
2023-01-15T19:35:21.991Z,1.30
2023-01-15T19:40:24.085Z,0.80
2023-01-15T19:45:44.325Z,1.10
2023-01-15T19:50:46.876Z,1.30
2023-01-15T19:55:48.493Z,1.02
2023-01-15T20:00:50.208Z,1.00
2023-01-15T20:05:52.014Z,0.93
2023-01-15T20:10:53.853Z,1.10
2023-01-15T20:15:55.469Z,1.00
2023-01-15T20:20:57.115Z,0.95
2023-01-15T20:26:07.527Z,1.20
2023-01-15T20:31:17.366Z,1.00
2023-01-15T20:36:19.070Z,0.93
2023-01-15T20:41:39.164Z,0.90
2023-01-15T20:46:40.888Z,1.40
2023-01-15T20:51:42.485Z,1.20
2023-01-15T20:56:44.069Z,1.15
2023-01-15T21:01:45.815Z,1.27
2023-01-15T21:06:47.486Z,1.15
2023-01-15T21:11:49.281Z,0.82
2023-01-15T21:16:51.700Z,1.08
2023-01-15T21:21:53.519Z,0.88
2023-01-15T21:26:55.324Z,0.88
2023-01-15T21:31:57.216Z,0.90
2023-01-15T21:36:58.933Z,0.85
2023-01-15T21:42:18.984Z,0.98
2023-01-15T21:47:20.664Z,0.70
2023-01-15T21:52:22.284Z,0.80
2023-01-15T21:57:23.851Z,1.20
2023-01-15T22:02:25.508Z,1.20
2023-01-15T22:07:27.131Z,1.17
2023-01-15T22:12:28.732Z,1.30
2023-01-15T22:17:30.351Z,1.23
2023-01-15T22:22:35.507Z,1.20
2023-01-15T22:27:40.816Z,0.90
2023-01-15T22:32:42.757Z,0.90
2023-01-15T22:37:44.450Z,0.90
2023-01-15T22:42:46.095Z,1.00
2023-01-15T22:47:47.657Z,0.70
2023-01-15T22:52:49.258Z,0.98
2023-01-15T22:57:50.927Z,1.00
2023-01-15T23:02:55.974Z,0.82
2023-01-15T23:07:57.617Z,0.90
2023-01-15T23:12:59.199Z,0.75
2023-01-15T23:18:00.812Z,0.75
2023-01-15T23:23:02.413Z,0.70
2023-01-15T23:28:04.140Z,0.82
2023-01-15T23:33:05.759Z,0.90
2023-01-15T23:38:07.285Z,0.82
2023-01-15T23:43:28.707Z,0.77
2023-01-15T23:48:30.345Z,1.02
2023-01-15T23:53:31.929Z,0.95
2023-01-15T23:58:33.571Z,1.07
